Time;durP1;ratioP1;P1;durP2;ratioP2;P2;SDS_P1;SDS_P2;PMS_P1;PMS_P2;Temp;Humidity;BMP_temperature;BMP_pressure;BME280_temperature;BME280_humidity;BME280_pressure;Samples;Min_cycle;Max_cycle;Signal;HPM_P1;HPM_P2
2023/12/18 00:02:18;;;;;;;29.92;13.38;;;;;;;4.85;100.00;101763.72;5052692;28;20064;-73
2023/12/18 00:04:43;;;;;;;25.38;12.45;;;;;;;4.81;100.00;101757.28;5051803;28;20474;-73
2023/12/18 00:07:09;;;;;;;20.63;10.88;;;;;;;4.78;100.00;101755.28;5054034;28;20025;-73
2023/12/18 00:09:34;;;;;;;25.15;12.65;;;;;;;4.73;100.00;101764.22;5052680;28;20067;-73
2023/12/18 00:11:59;;;;;;;20.90;10.02;;;;;;;4.70;100.00;101758.59;5053726;28;20056;-74
2023/12/18 00:14:25;;;;;;;23.58;12.50;;;;;;;4.65;100.00;101748.53;5053542;28;20374;-73
2023/12/18 00:16:50;;;;;;;24.75;10.98;;;;;;;4.57;100.00;101744.13;5052438;28;20027;-74
2023/12/18 00:19:16;;;;;;;22.13;11.05;;;;;;;4.55;100.00;101735.25;5053323;28;20428;-73
2023/12/18 00:21:41;;;;;;;18.10;10.27;;;;;;;4.52;100.00;101730.41;5053467;28;20035;-74
2023/12/18 00:24:06;;;;;;;18.67;10.50;;;;;;;4.48;100.00;101727.63;5049325;28;20041;-72
2023/12/18 00:26:32;;;;;;;18.08;9.30;;;;;;;4.37;100.00;101729.72;5049055;28;20586;-74
2023/12/18 00:28:57;;;;;;;17.30;9.35;;;;;;;4.39;100.00;101726.47;5050106;28;20476;-73
2023/12/18 00:31:23;;;;;;;17.75;8.73;;;;;;;4.41;100.00;101719.19;5052146;28;20032;-73
2023/12/18 00:33:48;;;;;;;15.00;8.50;;;;;;;4.41;100.00;101710.69;5051923;28;20029;-75
2023/12/18 00:36:14;;;;;;;14.13;8.32;;;;;;;4.41;100.00;101709.91;5051837;28;20023;-74
2023/12/18 00:38:39;;;;;;;15.68;8.52;;;;;;;4.36;100.00;101708.31;5051272;28;20339;-75
2023/12/18 00:41:05;;;;;;;17.63;8.07;;;;;;;4.30;100.00;101695.03;5051078;28;20480;-73
2023/12/18 00:43:30;;;;;;;17.58;7.28;;;;;;;4.24;100.00;101693.84;5051053;28;20033;-75
2023/12/18 00:45:55;;;;;;;15.93;8.52;;;;;;;4.20;100.00;101693.88;5051238;28;20059;-73
2023/12/18 00:48:21;;;;;;;17.65;7.57;;;;;;;4.27;100.00;101693.00;5051075;28;20082;-74
2023/12/18 00:50:46;;;;;;;16.65;7.13;;;;;;;4.33;100.00;101678.00;5049050;28;20083;-73
2023/12/18 00:53:16;;;;;;;11.15;7.15;;;;;;;4.41;100.00;101685.22;5051516;28;20398;-74
2023/12/18 00:55:42;;;;;;;16.70;7.45;;;;;;;4.50;100.00;101684.75;5051793;28;20033;-74
2023/12/18 00:58:07;;;;;;;12.82;6.50;;;;;;;4.66;100.00;101695.56;5052918;28;20029;-73
2023/12/18 01:00:33;;;;;;;13.65;6.57;;;;;;;4.74;100.00;101691.41;5051700;28;20059;-74
2023/12/18 01:02:58;;;;;;;13.35;6.30;;;;;;;4.81;100.00;101689.31;5053179;28;20534;-75
2023/12/18 01:05:23;;;;;;;14.50;7.45;;;;;;;4.88;100.00;101688.44;5052969;28;20028;-73
2023/12/18 01:07:49;;;;;;;14.02;5.95;;;;;;;4.94;100.00;101681.09;5052808;28;20021;-74
2023/12/18 01:10:14;;;;;;;11.52;6.63;;;;;;;5.02;100.00;101684.66;5052992;28;20066;-72
2023/12/18 01:12:40;;;;;;;13.43;6.15;;;;;;;5.11;100.00;101682.13;5052540;28;20021;-73
2023/12/18 01:15:05;;;;;;;11.07;5.60;;;;;;;5.18;100.00;101682.06;5052503;28;20035;-73
2023/12/18 01:17:31;;;;;;;11.95;6.07;;;;;;;5.25;100.00;101679.16;5051736;28;20028;-72
2023/12/18 01:19:56;;;;;;;11.07;5.32;;;;;;;5.32;100.00;101670.56;5052619;28;20037;-74
2023/12/18 01:22:22;;;;;;;10.43;6.05;;;;;;;5.39;100.00;101673.31;5051480;28;20123;-73
2023/12/18 01:24:47;;;;;;;10.82;6.28;;;;;;;5.46;100.00;101667.53;5051412;28;20031;-73
2023/12/18 01:27:12;;;;;;;10.35;4.90;;;;;;;5.48;100.00;101662.25;5052587;28;20033;-73
2023/12/18 01:29:41;;;;;;;15.50;6.25;;;;;;;5.47;100.00;101669.16;5051348;28;20355;-73
2023/12/18 01:32:08;;;;;;;10.35;5.70;;;;;;;5.46;100.00;101672.41;5051168;28;20118;-75
2023/12/18 01:34:34;;;;;;;13.73;5.57;;;;;;;5.48;100.00;101665.09;5052785;28;20468;-73
2023/12/18 01:36:59;;;;;;;12.35;5.40;;;;;;;5.46;100.00;101670.38;5052569;28;20029;-75
2023/12/18 01:39:24;;;;;;;12.18;6.45;;;;;;;5.46;100.00;101678.06;5051273;28;20028;-75
2023/12/18 01:41:50;;;;;;;10.23;6.30;;;;;;;5.41;100.00;101672.88;5052525;28;20135;-75
2023/12/18 01:44:15;;;;;;;9.07;5.43;;;;;;;5.41;100.00;101682.19;5052676;28;20028;-74
2023/12/18 01:46:41;;;;;;;10.15;5.90;;;;;;;5.38;100.00;101683.03;5052656;28;20025;-74
2023/12/18 01:49:07;;;;;;;10.55;5.82;;;;;;;5.36;100.00;101677.78;5034694;28;20017;-73
2023/12/18 01:51:32;;;;;;;9.65;5.80;;;;;;;5.33;100.00;101678.63;5051304;28;20025;-72
2023/12/18 01:53:58;;;;;;;11.75;6.45;;;;;;;5.31;100.00;101681.09;5051441;28;20496;-72
2023/12/18 01:56:27;;;;;;;13.95;6.50;;;;;;;5.31;100.00;101666.91;5052407;28;20029;-72
2023/12/18 01:58:54;;;;;;;11.38;6.43;;;;;;;5.30;100.00;101664.53;5050938;28;20399;-71
2023/12/18 02:01:19;;;;;;;11.02;6.10;;;;;;;5.27;100.00;101654.81;5034327;28;20036;-73
2023/12/18 02:03:45;;;;;;;13.18;6.40;;;;;;;5.24;100.00;101655.69;5051232;28;20021;-71
2023/12/18 02:06:13;;;;;;;9.38;5.47;;;;;;;5.23;100.00;101656.91;5052388;28;20047;-71
2023/12/18 02:08:39;;;;;;;12.98;5.80;;;;;;;5.22;100.00;101643.97;5052239;28;20033;-73
2023/12/18 02:11:04;;;;;;;15.48;6.32;;;;;;;5.23;100.00;101645.56;5034161;28;20021;-72
2023/12/18 02:13:30;;;;;;;9.05;5.75;;;;;;;5.24;100.00;101649.22;5050992;28;20036;-75
2023/12/18 02:15:57;;;;;;;10.50;5.32;;;;;;;5.27;100.00;101643.50;5050467;28;20545;-73
2023/12/18 02:18:22;;;;;;;12.32;5.25;;;;;;;5.28;100.00;101647.13;5049924;28;20485;-73
2023/12/18 02:20:48;;;;;;;12.00;4.75;;;;;;;5.32;100.00;101647.88;5049724;28;20307;-74
2023/12/18 02:23:13;;;;;;;8.70;5.00;;;;;;;5.31;100.00;101644.25;5049878;28;20036;-73
2023/12/18 02:25:39;;;;;;;9.80;5.43;;;;;;;5.33;100.00;101650.31;5049406;28;20068;-74
2023/12/18 02:28:07;;;;;;;8.57;4.35;;;;;;;5.32;100.00;101647.88;5051163;28;20032;-72
2023/12/18 02:30:33;;;;;;;9.57;5.10;;;;;;;5.33;100.00;101650.31;5052246;28;20021;-72
2023/12/18 02:32:59;;;;;;;8.38;5.03;;;;;;;5.30;100.00;101648.28;5053276;28;20016;-76
2023/12/18 02:35:25;;;;;;;8.20;4.60;;;;;;;5.33;100.00;101641.00;5053536;28;20210;-75
2023/12/18 02:37:50;;;;;;;12.30;5.00;;;;;;;5.35;100.00;101650.66;5052179;28;20082;-75
2023/12/18 02:40:15;;;;;;;8.77;5.10;;;;;;;5.36;100.00;101651.47;5051933;28;20029;-75
2023/12/18 02:42:41;;;;;;;11.48;5.10;;;;;;;5.37;100.00;101653.88;5053489;28;20021;-74
2023/12/18 02:45:07;;;;;;;8.73;4.90;;;;;;;5.36;100.00;101645.81;5035246;28;20463;-75
2023/12/18 02:47:32;;;;;;;11.93;6.18;;;;;;;5.38;100.00;101643.34;5055199;28;20066;-74
2023/12/18 02:49:57;;;;;;;8.70;5.43;;;;;;;5.37;100.00;101644.59;5055077;28;20095;-77
2023/12/18 02:52:23;;;;;;;8.75;4.82;;;;;;;5.35;100.00;101635.72;5055045;28;20095;-73
2023/12/18 02:54:48;;;;;;;8.27;5.18;;;;;;;5.36;100.00;101635.28;5053906;28;20491;-74
2023/12/18 02:57:14;;;;;;;9.30;5.10;;;;;;;5.41;100.00;101633.19;5053905;28;20021;-75
2023/12/18 02:59:39;;;;;;;10.57;5.40;;;;;;;5.42;100.00;101631.97;5053815;28;20040;-74
2023/12/18 03:02:05;;;;;;;10.13;4.97;;;;;;;5.46;100.00;101632.72;5055158;28;20112;-73
2023/12/18 03:04:30;;;;;;;12.07;5.85;;;;;;;5.49;100.00;101623.38;5053801;28;20027;-73
2023/12/18 03:06:56;;;;;;;9.63;4.85;;;;;;;5.52;100.00;101628.19;5053973;28;20462;-73
2023/12/18 03:09:21;;;;;;;11.70;5.47;;;;;;;5.52;100.00;101629.00;5036991;28;20021;-74
2023/12/18 03:11:47;;;;;;;9.80;4.95;;;;;;;5.53;100.00;101622.09;5054809;28;20374;-74
2023/12/18 03:14:12;;;;;;;9.07;5.35;;;;;;;5.52;100.00;101623.31;5053771;28;20091;-73
2023/12/18 03:16:38;;;;;;;8.38;4.70;;;;;;;5.50;100.00;101617.25;5053577;28;20035;-74
2023/12/18 03:19:03;;;;;;;9.32;4.97;;;;;;;5.51;100.00;101618.88;5053414;28;20112;-73
2023/12/18 03:21:29;;;;;;;6.10;4.50;;;;;;;5.54;100.00;101614.41;5053423;28;20066;-74
2023/12/18 03:23:54;;;;;;;12.57;5.45;;;;;;;5.55;100.00;101611.13;5036799;28;20067;-74
2023/12/18 03:26:20;;;;;;;8.27;4.70;;;;;;;5.56;100.00;101618.41;5053376;28;20069;-73
2023/12/18 03:28:45;;;;;;;6.40;4.20;;;;;;;5.55;100.00;101622.47;5054955;28;20040;-74
2023/12/18 03:31:11;;;;;;;8.05;4.85;;;;;;;5.55;100.00;101613.97;5053277;28;20036;-74
2023/12/18 03:33:37;;;;;;;7.47;4.25;;;;;;;5.53;100.00;101612.78;5054691;28;20079;-74
2023/12/18 03:36:06;;;;;;;7.68;4.78;;;;;;;5.56;100.00;101612.72;5054474;28;20029;-74
2023/12/18 03:38:31;;;;;;;11.25;4.20;;;;;;;5.56;100.00;101620.44;5054402;28;20036;-75
2023/12/18 03:40:57;;;;;;;7.32;4.38;;;;;;;5.53;100.00;101618.47;5054562;28;20044;-75
2023/12/18 03:43:23;;;;;;;9.30;4.57;;;;;;;5.50;100.00;101617.25;5054529;28;20028;-74
2023/12/18 03:45:49;;;;;;;7.50;4.88;;;;;;;5.45;100.00;101608.47;5054524;28;20462;-74
2023/12/18 03:48:15;;;;;;;9.10;4.65;;;;;;;5.40;100.00;101609.72;5054388;28;20048;-73
2023/12/18 03:50:41;;;;;;;6.65;4.25;;;;;;;5.44;100.00;101616.16;5054315;28;20413;-73
2023/12/18 03:53:08;;;;;;;7.85;4.00;;;;;;;5.44;100.00;101621.81;5052671;28;20508;-76
2023/12/18 03:55:34;;;;;;;5.38;4.30;;;;;;;5.45;100.00;101619.78;5054348;28;20040;-73
2023/12/18 03:57:59;;;;;;;8.23;4.40;;;;;;;5.42;100.00;101629.94;5052893;28;20386;-73
2023/12/18 04:00:25;;;;;;;6.45;4.95;;;;;;;5.38;100.00;101627.16;5054154;28;20120;-74
2023/12/18 04:02:50;;;;;;;6.75;4.00;;;;;;;5.35;100.00;101625.16;5054106;28;20078;-74
2023/12/18 04:05:16;;;;;;;6.78;4.50;;;;;;;5.31;100.00;101620.75;5053987;28;20060;-74
2023/12/18 04:07:41;;;;;;;9.85;4.93;;;;;;;5.26;100.00;101626.91;5054088;28;20025;-74
2023/12/18 04:10:09;;;;;;;5.55;4.32;;;;;;;5.28;100.00;101630.13;5052615;28;20037;-73
2023/12/18 04:12:35;;;;;;;6.68;3.97;;;;;;;5.26;100.00;101624.88;5052459;28;20043;-75
2023/12/18 04:15:00;;;;;;;7.32;4.22;;;;;;;5.24;100.00;101621.69;5052816;28;20100;-73
2023/12/18 04:17:26;;;;;;;6.53;4.43;;;;;;;5.29;100.00;101634.56;5052427;28;20461;-73
2023/12/18 04:19:51;;;;;;;6.45;4.20;;;;;;;5.29;100.00;101623.25;5053438;28;20041;-73
2023/12/18 04:22:16;;;;;;;8.30;4.45;;;;;;;5.28;100.00;101630.13;5053449;28;20425;-74
2023/12/18 04:24:42;;;;;;;7.97;4.45;;;;;;;5.25;100.00;101636.66;5052194;28;20029;-74
2023/12/18 04:27:08;;;;;;;7.13;4.75;;;;;;;5.22;100.00;101637.47;5053459;28;20025;-75
2023/12/18 04:29:33;;;;;;;7.07;4.97;;;;;;;5.18;100.00;101631.06;5053784;28;20053;-73
2023/12/18 04:31:59;;;;;;;10.77;4.50;;;;;;;5.13;100.00;101629.50;5053734;28;20051;-72
2023/12/18 04:34:24;;;;;;;6.55;4.55;;;;;;;5.06;100.00;101637.25;5053379;28;20111;-74
2023/12/18 04:36:49;;;;;;;7.30;5.10;;;;;;;4.94;100.00;101632.97;5052952;28;20039;-74
2023/12/18 04:39:15;;;;;;;11.43;5.82;;;;;;;4.88;100.00;101641.09;5053142;28;20029;-73
2023/12/18 04:41:41;;;;;;;9.57;5.97;;;;;;;4.86;100.00;101645.56;5053250;28;20401;-73
2023/12/18 04:44:06;;;;;;;9.68;5.22;;;;;;;4.82;100.00;101637.13;5053183;28;20445;-72
2023/12/18 04:46:35;;;;;;;12.10;5.93;;;;;;;4.80;100.00;101633.13;5053368;28;20029;-73
2023/12/18 04:49:01;;;;;;;11.95;6.00;;;;;;;4.79;100.00;101640.81;5053227;28;20029;-72
2023/12/18 04:51:27;;;;;;;10.18;5.25;;;;;;;4.75;100.00;101630.75;5052724;28;20094;-75
2023/12/18 04:53:52;;;;;;;11.95;6.10;;;;;;;4.72;100.00;101646.53;5051874;28;20120;-74
2023/12/18 04:56:19;;;;;;;10.43;6.55;;;;;;;4.69;100.00;101647.38;5051771;28;20393;-73
2023/12/18 04:58:46;;;;;;;11.65;6.32;;;;;;;4.68;100.00;101642.94;5052932;28;20032;-74
2023/12/18 05:01:11;;;;;;;12.70;6.25;;;;;;;4.64;100.00;101642.16;5051532;28;20029;-74
2023/12/18 05:03:38;;;;;;;10.93;6.25;;;;;;;4.59;100.00;101636.97;5051793;28;20064;-72
2023/12/18 05:06:04;;;;;;;12.73;7.10;;;;;;;4.54;100.00;101631.75;5052845;28;20063;-74
2023/12/18 05:08:31;;;;;;;12.80;7.03;;;;;;;4.53;100.00;101635.00;5051870;28;20100;-75
2023/12/18 05:10:58;;;;;;;13.27;7.18;;;;;;;4.50;100.00;101633.81;5053424;28;20038;-72
2023/12/18 05:13:24;;;;;;;11.23;7.18;;;;;;;4.49;100.00;101633.00;5053013;28;20033;-73
2023/12/18 05:15:52;;;;;;;13.20;7.13;;;;;;;4.48;100.00;101636.25;5051609;28;20075;-74
2023/12/18 05:18:18;;;;;;;12.43;7.75;;;;;;;4.45;100.00;101637.09;5052978;28;20177;-72
2023/12/18 05:20:43;;;;;;;10.70;6.95;;;;;;;4.44;100.00;101644.78;5050631;28;20044;-73
2023/12/18 05:23:10;;;;;;;14.38;7.82;;;;;;;4.42;100.00;101649.25;5051333;28;20020;-74
2023/12/18 05:25:38;;;;;;;11.63;7.60;;;;;;;4.40;100.00;101654.53;5053062;28;20032;-74
2023/12/18 05:28:04;;;;;;;14.75;8.18;;;;;;;4.39;100.00;101658.56;5052906;28;20466;-73
2023/12/18 05:30:34;;;;;;;11.98;8.25;;;;;;;4.39;100.00;101652.91;5034874;28;20021;-72
2023/12/18 05:33:02;;;;;;;11.55;7.85;;;;;;;4.38;100.00;101654.94;5052756;28;20047;-73
2023/12/18 05:35:29;;;;;;;11.82;7.95;;;;;;;4.34;100.00;101656.19;5034713;28;20044;-73
2023/12/18 05:37:54;;;;;;;11.05;7.28;;;;;;;4.30;100.00;101641.28;5051434;28;20035;-74
2023/12/18 05:40:22;;;;;;;16.77;9.80;;;;;;;4.34;100.00;101654.16;5051291;28;20037;-74
2023/12/18 05:42:50;;;;;;;13.45;8.07;;;;;;;4.37;100.00;101641.19;5052697;28;20025;-74
2023/12/18 05:45:17;;;;;;;13.82;8.38;;;;;;;4.39;100.00;101642.41;5051315;28;20123;-75
2023/12/18 05:47:44;;;;;;;14.70;8.38;;;;;;;4.40;100.00;101648.88;5051144;28;20438;-72
2023/12/18 05:50:12;;;;;;;14.13;7.47;;;;;;;4.35;100.00;101641.63;5034456;28;20029;-75
2023/12/18 05:52:38;;;;;;;12.90;8.02;;;;;;;4.34;100.00;101639.22;5051264;28;20040;-74
2023/12/18 05:55:04;;;;;;;12.73;7.53;;;;;;;4.33;100.00;101640.44;5052637;28;20083;-75
2023/12/18 05:57:31;;;;;;;11.93;7.80;;;;;;;4.29;100.00;101634.00;5051019;28;20056;-73
2023/12/18 06:00:05;;;;;;;17.55;10.00;;;;;;;4.29;100.00;101628.34;5052079;28;20050;-73
2023/12/18 06:02:31;;;;;;;12.63;8.00;;;;;;;4.28;100.00;101632.38;5052497;28;20369;-74
2023/12/18 06:04:57;;;;;;;12.68;8.05;;;;;;;4.28;100.00;101621.06;5055121;28;20128;-76
2023/12/18 06:07:23;;;;;;;12.85;8.25;;;;;;;4.27;100.00;101623.09;5038187;28;20033;-73
2023/12/18 06:09:49;;;;;;;12.63;8.52;;;;;;;4.28;100.00;101621.06;5038078;28;20489;-74
2023/12/18 06:12:17;;;;;;;13.38;7.97;;;;;;;4.28;100.00;101627.53;5054969;28;20024;-75
2023/12/18 06:14:45;;;;;;;14.10;8.48;;;;;;;4.30;100.00;101627.13;5054657;28;20131;-73
2023/12/18 06:17:12;;;;;;;12.95;8.27;;;;;;;4.30;100.00;101629.94;5055959;28;20107;-73
2023/12/18 06:19:39;;;;;;;16.10;9.45;;;;;;;4.30;100.00;101644.09;5055213;28;20033;-73
2023/12/18 06:22:05;;;;;;;15.23;9.00;;;;;;;4.28;100.00;101640.88;5055966;28;20029;-73
2023/12/18 06:24:30;;;;;;;13.82;8.25;;;;;;;4.22;100.00;101646.16;5054810;28;20025;-75
2023/12/18 06:26:56;;;;;;;14.65;8.10;;;;;;;4.21;100.00;101643.78;5055843;28;20028;-76
2023/12/18 06:29:25;;;;;;;14.82;9.23;;;;;;;4.25;100.00;101641.72;5054421;28;20124;-75
2023/12/18 06:31:52;;;;;;;14.68;8.45;;;;;;;4.27;100.00;101627.94;5055889;28;20039;-76
2023/12/18 06:34:18;;;;;;;13.60;7.38;;;;;;;4.34;100.00;101630.72;5037730;28;20029;-75
2023/12/18 06:36:45;;;;;;;14.07;7.65;;;;;;;4.41;100.00;101639.16;5054185;28;20120;-75
2023/12/18 06:39:13;;;;;;;16.10;8.35;;;;;;;4.41;100.00;101620.13;5055622;28;20052;-74
2023/12/18 06:41:39;;;;;;;14.27;7.72;;;;;;;4.48;100.00;101624.94;5054043;28;20036;-74
2023/12/18 06:44:04;;;;;;;16.75;8.38;;;;;;;4.57;100.00;101625.25;5055163;28;20115;-72
2023/12/18 06:46:30;;;;;;;13.20;6.97;;;;;;;4.63;100.00;101636.91;5054651;28;20033;-72
2023/12/18 06:48:58;;;;;;;13.95;7.68;;;;;;;4.69;100.00;101635.25;5042754;28;20083;-74
2023/12/18 06:51:26;;;;;;;16.80;8.40;;;;;;;4.75;100.00;101634.38;5044045;28;20400;-75
2023/12/18 06:53:52;;;;;;;19.35;7.55;;;;;;;4.79;100.00;101623.81;5049655;28;20032;-78
2023/12/18 06:56:19;;;;;;;13.38;7.60;;;;;;;4.86;100.00;101620.09;5047947;28;20411;-76
2023/12/18 06:58:45;;;;;;;16.42;8.82;;;;;;;4.96;100.00;101618.38;5054772;28;20049;-79
2023/12/18 07:01:15;;;;;;;17.35;8.05;;;;;;;5.02;100.00;101611.00;5053720;28;20061;-80
2023/12/18 07:03:42;;;;;;;12.70;7.35;;;;;;;5.03;100.00;101627.59;5055006;28;20116;-77
2023/12/18 07:06:08;;;;;;;11.98;7.07;;;;;;;5.07;100.00;101633.22;5054017;28;20104;-80
2023/12/18 07:08:34;;;;;;;15.63;8.02;;;;;;;5.06;100.00;101626.75;5052575;28;20036;-78
2023/12/18 07:11:00;;;;;;;15.15;7.95;;;;;;;5.08;100.00;101626.31;5053563;28;20021;-83
2023/12/18 07:13:25;;;;;;;13.35;7.65;;;;;;;5.06;100.00;101626.75;5052404;28;20560;-80
2023/12/18 07:15:51;;;;;;;14.40;8.00;;;;;;;5.09;100.00;101630.78;5052713;28;20037;-81
2023/12/18 07:18:17;;;;;;;15.23;8.13;;;;;;;5.10;100.00;101636.03;5053062;28;20036;-78
2023/12/18 07:20:43;;;;;;;20.77;14.27;;;;;;;5.07;100.00;101642.50;5051389;28;20045;-82
2023/12/18 07:23:09;;;;;;;21.55;9.75;;;;;;;5.08;100.00;101640.50;5051182;28;20090;-81
2023/12/18 07:25:35;;;;;;;15.15;9.20;;;;;;;5.06;100.00;101645.75;5050865;28;20037;-79
2023/12/18 07:28:00;;;;;;;17.63;9.52;;;;;;;5.00;100.00;101642.63;5051165;28;20043;-77
2023/12/18 07:30:25;;;;;;;21.95;9.07;;;;;;;5.00;100.00;101636.13;5053931;28;20032;-79
2023/12/18 07:32:51;;;;;;;18.00;9.35;;;;;;;4.93;100.00;101626.50;5058077;28;20458;-77
2023/12/18 07:35:16;;;;;;;16.08;8.68;;;;;;;4.96;100.00;101638.22;5069958;28;20027;-77
2023/12/18 07:37:42;;;;;;;19.88;10.07;;;;;;;4.98;100.00;101639.38;5052928;28;20444;-76
2023/12/18 07:40:08;;;;;;;21.15;10.43;;;;;;;5.01;100.00;101637.72;5036140;28;20116;-76
2023/12/18 07:42:33;;;;;;;23.65;10.45;;;;;;;5.02;100.00;101645.81;5054372;28;20037;-77
2023/12/18 07:44:58;;;;;;;40.30;15.38;;;;;;;5.02;100.00;101648.63;5054886;28;20059;-79
2023/12/18 07:47:24;;;;;;;17.52;9.73;;;;;;;5.04;100.00;101642.56;5054500;28;20028;-78
2023/12/18 07:49:49;;;;;;;17.88;9.82;;;;;;;5.03;100.00;101640.94;5054612;28;20025;-80
2023/12/18 07:52:16;;;;;;;17.65;9.65;;;;;;;5.07;100.00;101645.34;5036749;28;20072;-83
2023/12/18 07:54:42;;;;;;;20.58;9.85;;;;;;;5.07;100.00;101645.34;5053053;28;20044;-78
2023/12/18 07:57:07;;;;;;;26.95;9.52;;;;;;;5.11;100.00;101643.28;5053081;28;20029;-78
2023/12/18 07:59:33;;;;;;;17.90;10.63;;;;;;;5.20;100.00;101645.63;5054439;28;20581;-76
2023/12/18 08:01:58;;;;;;;17.38;9.30;;;;;;;5.23;100.00;101645.56;5054369;28;20037;-76
2023/12/18 08:04:23;;;;;;;17.52;9.75;;;;;;;5.31;100.00;101649.09;5052892;28;20028;-80
2023/12/18 08:06:52;;;;;;;14.80;8.85;;;;;;;5.47;100.00;101652.16;5052624;28;20079;-76
2023/12/18 08:09:17;;;;;;;18.10;9.32;;;;;;;5.54;100.00;101663.41;5053653;28;20039;-81
2023/12/18 08:11:43;;;;;;;21.95;10.60;;;;;;;5.58;100.00;101655.66;5045348;28;20029;-78
2023/12/18 08:14:09;;;;;;;20.63;9.80;;;;;;;5.63;100.00;101663.69;5022995;28;20065;-78
2023/12/18 08:16:34;;;;;;;17.38;9.90;;;;;;;5.70;100.00;101660.72;5032745;28;20029;-78
2023/12/18 08:19:00;;;;;;;17.00;8.40;;;;;;;5.72;100.00;101663.97;5042917;28;20124;-77
2023/12/18 08:21:26;;;;;;;16.33;9.10;;;;;;;5.82;100.00;101659.38;5052991;28;20474;-78
2023/12/18 08:23:52;;;;;;;19.20;8.43;;;;;;;5.95;100.00;101670.91;5035365;28;20070;-78
2023/12/18 08:26:17;;;;;;;17.33;8.60;;;;;;;6.03;100.00;101663.94;5052622;28;20028;-79
2023/12/18 08:28:44;;;;;;;14.93;8.85;;;;;;;6.13;100.00;101674.31;5054007;28;20024;-79
2023/12/18 08:31:10;;;;;;;17.15;8.18;;;;;;;6.20;100.00;101671.34;5053615;28;20029;-77
2023/12/18 08:33:35;;;;;;;17.27;8.23;;;;;;;6.28;100.00;101670.03;5052357;28;20050;-78
2023/12/18 08:36:00;;;;;;;14.55;8.35;;;;;;;6.39;100.00;101669.84;5053726;28;20474;-80
2023/12/18 08:38:29;;;;;;;16.25;8.18;;;;;;;6.47;100.00;101663.66;5035628;28;20028;-77
2023/12/18 08:40:54;;;;;;;11.10;6.93;;;;;;;6.52;100.00;101663.16;5052257;28;20492;-79
2023/12/18 08:43:20;;;;;;;14.93;8.13;;;;;;;6.60;100.00;101666.66;5052162;28;20029;-78
2023/12/18 08:45:46;;;;;;;14.38;8.45;;;;;;;6.67;100.00;101672.25;5051929;28;20171;-78
2023/12/18 08:48:13;;;;;;;13.60;7.57;;;;;;;6.75;100.00;101661.53;5053308;28;20032;-80
2023/12/18 08:50:38;;;;;;;15.85;8.70;;;;;;;6.80;100.00;101664.69;5053384;28;20024;-78
2023/12/18 08:53:04;;;;;;;14.77;9.15;;;;;;;6.88;100.00;101659.69;5051882;28;20513;-78
2023/12/18 08:55:30;;;;;;;14.00;8.02;;;;;;;6.95;100.00;101666.03;5035007;28;20041;-78
2023/12/18 08:57:58;;;;;;;16.15;8.02;;;;;;;7.01;100.00;101657.81;5052917;28;20064;-77
2023/12/18 09:00:25;;;;;;;15.23;8.32;;;;;;;7.08;100.00;101654.81;5053311;28;20036;-77
2023/12/18 09:02:51;;;;;;;19.73;9.50;;;;;;;7.15;100.00;101668.09;5053108;28;20107;-80
2023/12/18 09:05:19;;;;;;;14.32;7.88;;;;;;;7.21;100.00;101655.78;5051786;28;20163;-80
2023/12/18 09:07:44;;;;;;;14.82;7.63;;;;;;;7.27;100.00;101656.91;5053109;28;20521;-76
2023/12/18 09:10:11;;;;;;;11.55;6.85;;;;;;;7.37;100.00;101655.84;5051935;28;20104;-78
2023/12/18 09:12:39;;;;;;;9.70;5.45;;;;;;;7.51;100.00;101657.63;5051787;28;20032;-78
2023/12/18 09:15:04;;;;;;;10.65;6.53;;;;;;;7.62;100.00;101657.38;5052001;28;20037;-78
2023/12/18 09:17:30;;;;;;;7.93;5.18;;;;;;;7.69;100.00;101655.19;5052682;28;20032;-85
2023/12/18 09:19:55;;;;;;;11.05;5.65;;;;;;;7.79;100.00;101659.81;5053227;28;20087;-88
2023/12/18 09:22:21;;;;;;;10.43;5.95;;;;;;;7.90;100.00;101645.38;5052802;28;20048;-84
2023/12/18 09:24:46;;;;;;;11.02;5.35;;;;;;;8.00;100.00;101644.31;5053037;28;20086;-80
2023/12/18 09:27:13;;;;;;;11.93;7.10;;;;;;;8.10;100.00;101637.56;5051589;28;20456;-77
2023/12/18 09:29:38;;;;;;;13.40;5.50;;;;;;;8.19;100.00;101639.81;5051971;28;20025;-79
2023/12/18 09:32:04;;;;;;;12.40;5.97;;;;;;;8.31;100.00;101642.75;5052940;28;20112;-80
2023/12/18 09:34:29;;;;;;;11.75;5.30;;;;;;;8.37;100.00;101654.41;5053198;28;20037;-82
2023/12/18 09:36:54;;;;;;;9.20;5.00;;;;;;;8.46;100.00;101640.34;5055206;28;20060;-83
2023/12/18 09:39:20;;;;;;;6.70;4.88;;;;;;;8.49;100.00;101645.16;5057215;28;20460;-80
2023/12/18 09:41:46;;;;;;;7.70;5.38;;;;;;;8.54;100.00;101655.22;5057002;28;20029;-80
2023/12/18 09:44:11;;;;;;;8.55;4.47;;;;;;;8.61;100.00;101664.38;5055717;28;20386;-80
2023/12/18 09:46:37;;;;;;;11.30;5.72;;;;;;;8.68;100.00;101658.50;5056894;28;20112;-80
2023/12/18 09:49:02;;;;;;;10.65;5.78;;;;;;;8.74;100.00;101655.94;5055725;28;20024;-79
2023/12/18 09:51:28;;;;;;;8.55;5.00;;;;;;;8.75;100.00;101643.28;5056854;28;20021;-80
2023/12/18 09:53:53;;;;;;;11.25;5.15;;;;;;;8.81;100.00;101645.13;5038896;28;20029;-80
2023/12/18 09:56:23;;;;;;;11.68;5.38;;;;;;;8.86;100.00;101646.63;5056905;28;20048;-78
2023/12/18 09:58:49;;;;;;;5.90;4.00;;;;;;;8.92;100.00;101646.88;5057237;28;20047;-78
2023/12/18 10:01:15;;;;;;;8.10;4.70;;;;;;;8.97;100.00;101627.19;5056899;28;20024;-80
2023/12/18 10:03:41;;;;;;;11.57;4.40;;;;;;;8.94;100.00;101627.28;5058787;28;20044;-85
2023/12/18 10:06:08;;;;;;;6.47;4.22;;;;;;;9.03;100.00;101616.84;5076291;28;20033;-83
2023/12/18 10:08:34;;;;;;;10.00;4.10;;;;;;;9.11;100.00;101621.09;5076278;28;20039;-80
2023/12/18 10:11:00;;;;;;;6.53;4.28;;;;;;;9.17;100.00;101612.78;5075449;28;20025;-80
2023/12/18 10:13:25;;;;;;;8.10;4.10;;;;;;;9.18;100.00;101615.19;5075696;28;20051;-79
2023/12/18 10:15:53;;;;;;;6.22;3.65;;;;;;;9.29;100.00;101616.94;5058328;28;20024;-79
2023/12/18 10:18:21;;;;;;;9.65;3.92;;;;;;;9.31;100.00;101609.50;5071627;28;20123;-79
2023/12/18 10:20:48;;;;;;;8.30;3.60;;;;;;;9.34;100.00;101620.03;5075786;28;20143;-80
2023/12/18 10:23:13;;;;;;;5.40;3.97;;;;;;;9.42;100.00;101609.19;5076379;28;20029;-79
2023/12/18 10:25:38;;;;;;;10.60;5.05;;;;;;;9.51;100.00;101612.19;5076709;28;20044;-82
2023/12/18 10:28:05;;;;;;;7.00;4.05;;;;;;;9.51;100.00;101606.47;5076396;28;20411;-81
2023/12/18 10:30:31;;;;;;;6.60;4.28;;;;;;;9.54;100.00;101608.44;5076311;28;20017;-80
2023/12/18 10:32:57;;;;;;;8.32;4.47;;;;;;;9.58;100.00;101607.06;5075950;28;20025;-80
2023/12/18 10:35:22;;;;;;;6.32;3.70;;;;;;;9.65;100.00;101611.75;5074391;28;20488;-80
2023/12/18 10:37:54;;;;;;;7.68;4.20;;;;;;;9.64;100.00;101601.59;5074654;28;20033;-79
2023/12/18 10:40:22;;;;;;;4.85;3.05;;;;;;;9.72;100.00;101613.59;5066760;28;20070;-83
2023/12/18 10:43:21;;;;;;;4.75;3.38;;;;;;;9.75;100.00;101593.53;5066626;28;20083;-86
2023/12/18 10:45:47;;;;;;;4.53;2.83;;;;;;;9.79;100.00;101588.50;5075828;28;20053;-81
2023/12/18 10:48:14;;;;;;;4.35;2.53;;;;;;;9.81;100.00;101588.03;5074871;28;20028;-80
2023/12/18 10:50:40;;;;;;;6.38;2.65;;;;;;;9.83;100.00;101589.19;5075235;28;20359;-83
2023/12/18 10:53:06;;;;;;;3.90;2.40;;;;;;;9.85;100.00;101597.28;5075681;28;20035;-83
2023/12/18 10:55:33;;;;;;;7.65;2.88;;;;;;;9.86;100.00;101593.19;5076071;28;20035;-81
2023/12/18 10:58:00;;;;;;;9.07;3.22;;;;;;;9.93;100.00;101590.91;5075763;28;20066;-83
2023/12/18 11:00:26;;;;;;;5.03;2.45;;;;;;;9.97;100.00;101582.22;5075272;28;20031;-80
2023/12/18 11:02:52;;;;;;;5.63;2.78;;;;;;;9.98;100.00;101589.53;5057326;28;20107;-77
2023/12/18 11:05:17;;;;;;;5.32;2.70;;;;;;;9.96;100.00;101581.44;5071543;28;20108;-77
2023/12/18 11:07:43;;;;;;;5.35;3.00;;;;;;;10.02;100.00;101581.66;5054294;28;20101;-77
2023/12/18 11:10:09;;;;;;;4.45;2.63;;;;;;;10.08;100.00;101574.13;5054071;28;20520;-78
2023/12/18 11:12:37;;;;;;;5.43;2.60;;;;;;;10.04;100.00;101570.56;5055486;28;20021;-78
2023/12/18 11:15:21;;;;;;;3.17;2.60;;;;;;;10.08;100.00;101554.94;5053934;28;20078;-78